• Join FlightAware (Why Join?)
  • Login
  • US Flag 
Rudolph Flight #1: Scheduled 
10:59PM EST


 

Airport Tracker/Info


-or-


 

Live Flight TrackerFlight Track Log ✈ UAL980 ✈ 30-Apr-2012 ✈ KIAH - KLGA

Flight Track Log - Related Links

Times and Time Zones

All times are in EDT time to prevent confusion due to time zone crossing. See the UAL980 flight status page for this flight to view local times or setup timezone preferences in your user account.

Time Position Orientation Groundspeed Altitude Reporting Facility
EDT Latitude Longitude Course Direction KTS MPH feet Rate Location/Type
01:20PM 29.9833 -95.3058 129° Southeast  Level FlightAware Approximate
01:21PM 29.9542 -95.2639 85° East 241 277 3,800  Level Houston Center
01:22PM 29.9600 -95.1922 87° East 279 321 6,000 2,700 Climbing Houston Center
01:23PM 29.9644 -95.1061 87° East 279 321 8,900 2,520 Climbing Houston Center
01:24PM 29.9689 -95.0056 88° East 290 334 11,100 1,740 Climbing Houston Center
01:25PM 29.9714 -94.9028 86° East 316 364 12,400 1,860 Climbing Houston Center
01:26PM 29.9786 -94.7783 87° East 360 414 14,900 2,520 Climbing Houston Center
01:27PM 29.9836 -94.6464 88° East 389 448 17,500 2,340 Climbing Houston Center
01:28PM 29.9886 -94.5122 88° East 408 470 19,600 2,100 Climbing Houston Center
01:29PM 29.9936 -94.3639 84° East 415 478 21,800 1,920 Climbing Houston Center
01:30PM 30.0069 -94.2203 81° East 431 496 23,500 1,740 Climbing Houston Center
01:31PM 30.0264 -94.0697 82° East 452 520 25,300 1,680 Climbing Houston Center
01:32PM 30.0436 -93.9189 83° East 471 542 26,900 1,500 Climbing Houston Center
01:33PM 30.0608 -93.7633 82° East 482 555 28,300 1,320 Climbing Houston Center
01:34PM 30.0800 -93.6006 82° East 492 566 29,600 1,380 Climbing Houston Center
01:35PM 30.1008 -93.4378 83° East 502 578 31,100 1,500 Climbing Houston Center
01:36PM 30.1175 -93.2769 81° East 502 578 32,700 1,380 Climbing Houston Center
01:37PM 30.1381 -93.1308 78° East 502 578 33,900 1,200 Climbing Houston Center
01:38PM 30.1667 -92.9703 76° East 502 578 35,100 1,140 Climbing Houston Center
01:39PM 30.1994 -92.8122 77° East 502 578 36,200 900 Climbing Houston Center
01:40PM 30.2300 -92.6539 77° East 502 578 37,000 360 Climbing Houston Center
01:41PM 30.2625 -92.4931 79° East 507 583 37,000  Level Houston Center
01:42PM 30.2883 -92.3322 77° East 507 583 37,000  Level Houston Center
01:43PM 30.3203 -92.1686 78° East 512 589 37,000  Level Houston Center
01:44PM 30.3500 -92.0075 78° East 512 589 37,000  Level Houston Center
01:45PM 30.3797 -91.8439 75° East 507 583 37,000  Level Houston Center
01:46PM 30.4153 -91.6875 78° East 507 583 37,000 -60 Level Houston Center
01:47PM 30.4444 -91.5239 79° East 502 578 36,900  Descending Houston Center
01:48PM 30.4711 -91.3647 76° East 507 583 37,000  Climbing Houston Center
01:49PM 30.5042 -91.2081 75° East 507 583 37,000 -60 Level Houston Center
01:50PM 30.5411 -91.0486 75° East 507 583 36,900  Descending Houston Center
01:51PM 30.5781 -90.8917 77° East 507 583 37,000  Climbing Houston Center
01:52PM 30.6103 -90.7322 75° East 507 583 36,900  Descending Houston Center
01:53PM 30.6467 -90.5750 75° East 507 583 37,000  Climbing Houston Center
01:54PM 30.6831 -90.4175 76° East 507 583 37,000 -60 Level Houston Center
01:55PM 30.7169 -90.2625 75° East 501 577 36,900  Descending Houston Center
01:56PM 30.7547 -90.1025 76° East 501 577 37,000  Climbing Houston Center
01:57PM 30.7922 -89.9303 75° East 496 571 36,900  Descending Houston Center
01:58PM 30.8278 -89.7703 75° East 496 571 37,000  Climbing Houston Center
01:59PM 30.8631 -89.6147 76° East 496 571 36,900  Descending Houston Center
02:00PM 30.8961 -89.4544 75° East 496 571 37,000  Climbing Houston Center
02:01PM 30.9311 -89.3011 64° Northeast 491 565 37,000  Level Houston Center
02:02PM 30.9911 -89.1569 61° Northeast 486 559 37,000 -60 Level Houston Center
02:03PM 31.0572 -89.0169 63° Northeast 486 559 36,900  Descending Houston Center
02:04PM 31.1169 -88.8772 61° Northeast 486 559 37,000  Climbing Houston Center
02:06PM 31.2244 -88.6497 62° Northeast 487 560 37,000  Level Atlanta Center
02:07PM 31.2881 -88.5094 63° Northeast 487 560 37,000  Level Atlanta Center
02:08PM 31.3517 -88.3644 63° Northeast 487 560 37,000  Level Atlanta Center
02:09PM 31.4150 -88.2214 63° Northeast 487 560 37,000  Level Atlanta Center
02:10PM 31.4758 -88.0831 64° Northeast 482 555 37,000  Level Atlanta Center
02:11PM 31.5347 -87.9394 62° Northeast 482 555 37,000  Level Atlanta Center
02:12PM 31.5975 -87.7983 63° Northeast 482 555 37,000  Level Atlanta Center
02:13PM 31.6469 -87.6858 64° Northeast 482 555 37,000  Level Atlanta Center
02:14PM 31.7119 -87.5322 63° Northeast 477 549 37,000  Level Atlanta Center
02:15PM 31.7742 -87.3903 65° Northeast 482 555 37,000  Level Atlanta Center
02:16PM 31.8303 -87.2483 63° Northeast 477 549 37,000  Level Atlanta Center
02:17PM 31.8900 -87.1111 64° Northeast 477 549 37,000  Level Atlanta Center
02:18PM 31.9497 -86.9686 63° Northeast 477 549 37,000  Level Atlanta Center
02:19PM 32.0094 -86.8311 62° Northeast 477 549 37,000  Level Atlanta Center
02:20PM 32.0708 -86.6933 64° Northeast 472 543 37,000  Level Atlanta Center
02:21PM 32.1281 -86.5528 62° Northeast 472 543 37,000  Level Atlanta Center
02:22PM 32.1892 -86.4169 65° Northeast 465 535 37,000  Level Atlanta Center
02:23PM 32.2483 -86.2686 56° Northeast 460 529 37,000  Level Atlanta Center
02:24PM 32.3214 -86.1403 53° Northeast 465 535 37,000  Level Atlanta Center
02:25PM 32.4008 -86.0142 55° Northeast 471 542 37,000  Level Atlanta Center
02:26PM 32.4717 -85.8928 54° Northeast 463 533 37,000  Level Atlanta Center
02:27PM 32.5464 -85.7686 54° Northeast 486 559 37,000  Level Atlanta Center
02:28PM 32.6211 -85.6444 55° Northeast 480 552 37,000  Level Atlanta Center
02:29PM 32.6936 -85.5197 55° Northeast 469 540 37,000  Level Atlanta Center
02:30PM 32.7703 -85.3903 54° Northeast 469 540 37,000  Level Atlanta Center
02:31PM 32.8553 -85.2531 57° Northeast 469 540 37,000  Level Atlanta Center
02:32PM 32.9233 -85.1278 54° Northeast 459 528 37,000  Level Atlanta Center
02:33PM 32.9994 -85.0022 56° Northeast 459 528 37,000  Level Atlanta Center
02:34PM 33.0650 -84.8864 55° Northeast 464 534 37,000  Level Atlanta Center
02:35PM 33.1408 -84.7583 57° Northeast 464 534 37,000  Level Atlanta Center
02:36PM 33.2125 -84.6272 56° Northeast 464 534 37,000  Level Atlanta Center
02:37PM 33.2861 -84.4986 56° Northeast 464 534 37,000  Level Atlanta Center
02:38PM 33.3597 -84.3697 56° Northeast 464 534 37,000  Level Atlanta Center
02:39PM 33.4331 -84.2381 56° Northeast 464 534 37,000  Level Atlanta Center
02:40PM 33.5061 -84.1061 55° Northeast 464 534 37,000  Level Atlanta Center
02:41PM 33.5814 -83.9764 55° Northeast 469 540 37,000  Level Atlanta Center
02:42PM 33.6564 -83.8467 56° Northeast 469 540 37,000  Level Atlanta Center
02:43PM 33.7292 -83.7167 56° Northeast 469 540 37,000  Level Atlanta Center
02:44PM 33.8017 -83.5864 56° Northeast 464 534 37,000  Level Atlanta Center
02:45PM 33.8825 -83.4433 58° Northeast 464 534 37,000  Level Atlanta Center
02:46PM 33.9528 -83.3100 56° Northeast 464 534 37,000  Level Atlanta Center
02:47PM 34.0269 -83.1767 58° Northeast 469 540 37,000  Level Atlanta Center
02:48PM 34.0969 -83.0403 58° Northeast 469 540 37,000  Level Atlanta Center
02:49PM 34.1667 -82.9064 58° Northeast 469 540 37,000  Level Atlanta Center
02:50PM 34.2364 -82.7725 58° Northeast 469 540 37,000  Level Atlanta Center
02:51PM 34.3058 -82.6381 57° Northeast 469 540 37,000  Level Atlanta Center
02:52PM 34.3775 -82.5061 58° Northeast 469 540 37,000  Level Atlanta Center
02:53PM 34.4467 -82.3714 59° Northeast 469 540 37,000  Level Atlanta Center
02:54PM 34.5156 -82.2336 57° Northeast 469 540 37,000  Level Atlanta Center
02:55PM 34.5867 -82.1011 58° Northeast 469 540 37,000  Level Atlanta Center
02:56PM 34.6553 -81.9656 58° Northeast 469 540 37,000  Level Atlanta Center
02:57PM 34.7181 -81.8453 59° Northeast 474 545 37,000  Level Atlanta Center
02:58PM 34.7864 -81.7069 59° Northeast 474 545 37,000  Level Atlanta Center
02:59PM 34.8547 -81.5708 59° Northeast 474 545 37,000  Level Atlanta Center
03:00PM 34.9228 -81.4319 58° Northeast 474 545 37,000  Level Atlanta Center
03:01PM 34.9908 -81.2981 59° Northeast 474 545 37,000  Level Atlanta Center
03:02PM 35.0586 -81.1589 58° Northeast 474 545 37,000  Level Atlanta Center
03:03PM 35.1422 -80.9933 59° Northeast 474 545 37,000  Level Atlanta Center
03:04PM 35.2097 -80.8561 59° Northeast 474 545 37,000  Level Atlanta Center
03:05PM 35.2789 -80.7161 60° Northeast 474 545 37,000  Level Atlanta Center
03:07PM 35.4064 -80.4492 58° Northeast 471 542 37,000  Level Washington Center
03:08PM 35.4767 -80.3106 60° Northeast 471 542 37,000  Level Washington Center
03:09PM 35.5403 -80.1767 59° Northeast 471 542 37,000  Level Washington Center
03:10PM 35.6014 -80.0522 58° Northeast 471 542 37,000  Level Washington Center
03:11PM 35.6689 -79.9181 61° Northeast 464 534 37,000  Level Washington Center
03:12PM 35.7344 -79.7731 45° Northeast 469 540 37,000  Level Washington Center
03:42PM 38.4803 -76.2203 36° Northeast 475 547 37,000 -360 Level Washington Center
03:48PM 39.0925 -75.6503 37° Northeast 473 544 25,300 -1,920 Descending Washington Center
03:49PM 39.2072 -75.5381 35° Northeast 453 521 23,900 -1,440 Descending Washington Center
03:50PM 39.3072 -75.4467 34° Northeast 448 516 22,500 -1,440 Descending Washington Center
03:51PM 39.3967 -75.3686 35° Northeast 436 502 21,100 -1,560 Descending Washington Center
03:52PM 39.4903 -75.2850 36° Northeast 423 487 19,400 -1,140 Descending Washington Center
03:53PM 39.5794 -75.2011 35° Northeast 410 472 18,900 -840 Descending Washington Center
03:54PM 39.6708 -75.1169 34° Northeast 403 464 17,800 -1,680 Descending Washington Center
03:55PM 39.7683 -75.0300 33° Northeast 390 449 15,500 -1,860 Descending Washington Center
03:56PM 39.8472 -74.9644 42° Northeast 385 443 14,200 -1,440 Descending Washington Center
03:58PM 40.0000 -74.7833 49° Northeast 361 415 11,400 -1,260 Descending New York TRACON
03:59PM 40.0667 -74.6833 44° Northeast 360 414 10,600 -720 Descending New York TRACON
04:00PM 40.1333 -74.6000 46° Northeast 308 354 10,000 -480 Descending New York TRACON
04:01PM 40.1833 -74.5333 45° Northeast 256 295 9,700 -540 Descending New York TRACON
04:02PM 40.2333 -74.4667 45° Northeast 248 285 9,000 -720 Descending New York TRACON
04:03PM 40.2833 -74.4000 45° Northeast 251 289 8,300 -960 Descending New York TRACON
04:04PM 40.3333 -74.3333 45° Northeast 249 287 7,100 -660 Descending New York TRACON
04:05PM 40.3833 -74.2667 45° Northeast 248 285 7,000 -60 Descending New York TRACON
04:06PM 40.4333 -74.2000 37° Northeast 244 281 7,000 -120 Level New York TRACON
04:07PM 40.4833 -74.1500 45° Northeast 244 281 6,800 -840 Descending New York TRACON
04:08PM 40.5333 -74.0833 27° Northeast 240 276 5,400 -1,260 Descending New York TRACON
04:09PM 40.5833 -74.0500 360° North 234 269 4,200 -720 Descending New York TRACON
04:10PM 40.6500 -74.0500 11° North 232 267 4,000 -120 Descending New York TRACON
04:11PM 40.7167 -74.0333 21° North 230 265 4,000 -60 Level New York TRACON
04:12PM 40.7833 -74.0000 37° Northeast 236 272 3,900 -540 Descending New York TRACON
04:13PM 40.8333 -73.9500 57° Northeast 228 262 3,000 -540 Descending New York TRACON
04:14PM 40.8667 -73.8833 37° Northeast 214 246 2,900 -480 Descending New York TRACON
04:15PM 40.9167 -73.8333 37° Northeast 207 238 2,100 -840 Descending New York TRACON